createdAt,value
2023-04-02T00:01:52.295Z,98275.84
2023-04-02T00:04:22.537Z,98286.59
2023-04-02T00:07:19.162Z,98281.22
2023-04-02T00:09:46.395Z,98281.44
2023-04-02T00:12:18.269Z,98284.16
2023-04-02T00:14:54.402Z,98290.34
2023-04-02T00:17:24.576Z,98298.44
2023-04-02T00:19:57.384Z,98291.19
2023-04-02T00:22:28.781Z,98298.66
2023-04-02T00:24:56.507Z,98308.59
2023-04-02T00:27:23.707Z,98299.97
2023-04-02T00:29:52.648Z,98300.81
2023-04-02T00:32:24.589Z,98298.34
2023-04-02T00:34:53.358Z,98293.75
2023-04-02T00:37:27.987Z,98306.44
2023-04-02T00:40:00.798Z,98298.34
2023-04-02T00:42:31.144Z,98302.91
2023-04-02T00:44:59.080Z,98297.53
2023-04-02T00:47:31.872Z,98295.88
2023-04-02T00:50:06.097Z,98294.25
2023-04-02T00:52:35.375Z,98306.63
2023-04-02T00:55:06.577Z,98298.78
2023-04-02T00:57:34.457Z,98308.50
2023-04-02T01:00:15.848Z,98306.63
2023-04-02T01:02:42.940Z,98303.94
2023-04-02T01:05:23.247Z,98313.88
2023-04-02T01:08:04.104Z,98303.94
2023-04-02T01:10:47.429Z,98304.19
2023-04-02T01:13:23.898Z,98305.25
2023-04-02T01:15:58.756Z,98313.09
2023-04-02T01:18:36.822Z,98312.50
2023-04-02T01:21:17.875Z,98314.94
2023-04-02T01:23:53.833Z,98317.63
2023-04-02T01:26:28.943Z,98318.47
2023-04-02T01:29:03.059Z,98320.34
2023-04-02T01:31:33.268Z,98318.34
2023-04-02T01:34:02.391Z,98320.81
2023-04-02T01:36:39.153Z,98328.88
2023-04-02T01:39:17.789Z,98322.94
2023-04-02T01:41:50.695Z,98325.63
2023-04-02T01:44:25.031Z,98325.63
2023-04-02T01:46:52.768Z,98330.78
2023-04-02T01:49:22.146Z,98328.09
2023-04-02T01:51:53.119Z,98326.66
2023-04-02T01:54:21.914Z,98338.50
2023-04-02T01:56:49.709Z,98334.38
2023-04-02T01:59:22.175Z,98331.81
2023-04-02T02:01:57.349Z,98336.34
2023-04-02T02:04:24.677Z,98329.91
2023-04-02T02:06:51.837Z,98340.44
2023-04-02T02:09:26.151Z,98331.81
2023-04-02T02:11:53.176Z,98331.81
2023-04-02T02:14:23.254Z,98337.19
2023-04-02T02:16:50.690Z,98332.59
2023-04-02T02:19:24.705Z,98333.44
2023-04-02T02:21:54.189Z,98331.81
2023-04-02T02:24:24.203Z,98336.34
2023-04-02T02:27:03.772Z,98338.22
2023-04-02T02:29:37.130Z,98338.22
2023-04-02T02:32:06.842Z,98344.44
2023-04-02T02:34:38.826Z,98339.28
2023-04-02T02:37:12.305Z,98342.22
2023-04-02T02:39:43.181Z,98346.81
2023-04-02T02:42:16.158Z,98355.44
2023-04-02T02:44:48.254Z,98351.13
2023-04-02T02:47:18.650Z,98355.44
2023-04-02T02:49:50.032Z,98353.56
2023-04-02T02:52:21.478Z,98353.81
2023-04-02T02:54:58.258Z,98352.97
2023-04-02T02:57:32.249Z,98356.75
2023-04-02T03:00:02.330Z,98362.13
2023-04-02T03:02:35.352Z,98354.06
2023-04-02T03:05:03.097Z,98357.56
2023-04-02T03:07:31.773Z,98362.13
2023-04-02T03:10:05.670Z,98372.06
2023-04-02T03:12:44.097Z,98369.38
2023-04-02T03:15:22.914Z,98368.53
2023-04-02T03:17:57.529Z,98375.78
2023-04-02T03:20:31.687Z,98375.78
2023-04-02T03:23:07.290Z,98376.84
2023-04-02T03:25:41.012Z,98384.94
2023-04-02T03:28:19.697Z,98380.38
2023-04-02T03:30:52.988Z,98384.09
2023-04-02T03:33:25.500Z,98386.22
2023-04-02T03:35:59.951Z,98387.03
2023-04-02T03:38:29.684Z,98396.75
2023-04-02T03:41:05.154Z,98402.38
2023-04-02T03:43:39.701Z,98397.00
2023-04-02T03:46:22.144Z,98399.09
2023-04-02T03:48:51.829Z,98409.38
2023-04-02T03:51:23.589Z,98409.06
2023-04-02T03:53:50.930Z,98406.59
2023-04-02T03:56:28.510Z,98406.59
2023-04-02T03:59:07.953Z,98413.63
2023-04-02T04:01:42.466Z,98413.63
2023-04-02T04:04:14.969Z,98411.75
2023-04-02T04:06:44.902Z,98419.22
2023-04-02T04:09:19.718Z,98417.38
2023-04-02T04:11:51.720Z,98420.84
2023-04-02T04:14:27.548Z,98423.53
2023-04-02T04:17:04.419Z,98429.75
2023-04-02T04:19:40.431Z,98428.94
2023-04-02T04:22:14.435Z,98429.19
2023-04-02T04:24:45.867Z,98430.81
2023-04-02T04:27:21.512Z,98432.69
2023-04-02T04:29:55.680Z,98436.44
2023-04-02T04:32:32.495Z,98434.56
2023-04-02T04:35:15.911Z,98441.59
2023-04-02T04:37:49.693Z,98441.00
2023-04-02T04:40:23.808Z,98444.50
2023-04-02T04:42:58.242Z,98441.00
2023-04-02T04:45:42.625Z,98443.69
2023-04-02T04:48:19.125Z,98446.38
2023-04-02T04:50:51.779Z,98454.22
2023-04-02T04:53:22.217Z,98452.59
2023-04-02T04:55:54.164Z,98454.69
2023-04-02T04:58:24.324Z,98456.34
2023-04-02T05:01:01.862Z,98464.41
2023-04-02T05:03:38.021Z,98466.50
2023-04-02T05:06:12.641Z,98468.41
2023-04-02T05:08:45.428Z,98463.81
2023-04-02T05:11:20.107Z,98468.41
2023-04-02T05:13:52.548Z,98468.41
2023-04-02T05:16:27.222Z,98467.09
2023-04-02T05:19:03.827Z,98473.06
2023-04-02T05:21:40.652Z,98483.13
2023-04-02T05:24:35.641Z,98478.09
2023-04-02T05:27:12.277Z,98478.91
2023-04-02T05:29:44.387Z,98480.34
2023-04-02T05:32:17.589Z,98486.59
2023-04-02T05:34:51.710Z,98491.09
2023-04-02T05:37:21.459Z,98488.25
2023-04-02T05:39:52.358Z,98491.28
2023-04-02T05:42:23.596Z,98486.81
2023-04-02T05:45:06.974Z,98490.44
2023-04-02T05:47:40.868Z,98494.88
2023-04-02T05:50:19.084Z,98490.97
2023-04-02T05:52:51.794Z,98497.53
2023-04-02T05:55:33.057Z,98501.22
2023-04-02T05:58:25.575Z,98502.97
2023-04-02T06:01:21.080Z,98504.38
2023-04-02T06:03:57.475Z,98506.31
2023-04-02T06:06:46.355Z,98507.47
2023-04-02T06:09:19.838Z,98506.78
2023-04-02T06:11:51.461Z,98514.16
2023-04-02T06:14:19.382Z,98521.97
2023-04-02T06:16:48.082Z,98518.00
2023-04-02T06:19:19.066Z,98527.47
2023-04-02T06:21:49.939Z,98526.97
2023-04-02T06:24:24.416Z,98532.47
2023-04-02T06:26:57.725Z,98536.22
2023-04-02T06:29:31.607Z,98536.81
2023-04-02T06:32:00.795Z,98534.94
2023-04-02T06:34:30.776Z,98543.59
2023-04-02T06:37:19.618Z,98539.00
2023-04-02T06:39:47.558Z,98548.50
2023-04-02T06:42:19.413Z,98537.72
2023-04-02T06:45:23.142Z,98544.72
2023-04-02T06:48:17.261Z,98552.81
2023-04-02T06:50:49.366Z,98557.16
2023-04-02T06:53:21.530Z,98563.94
2023-04-02T06:55:52.688Z,98564.19
2023-04-02T06:58:24.133Z,98567.69
2023-04-02T07:00:52.435Z,98573.06
2023-04-02T07:03:29.979Z,98572.00
2023-04-02T07:06:02.765Z,98577.16
2023-04-02T07:08:32.117Z,98571.53
2023-04-02T07:10:59.078Z,98575.06
2023-04-02T07:13:26.469Z,98575.63
2023-04-02T07:15:55.075Z,98577.25
2023-04-02T07:18:26.529Z,98582.66
2023-04-02T07:20:53.870Z,98590.50
2023-04-02T07:23:21.239Z,98585.94
2023-04-02T07:25:50.333Z,98598.34
2023-04-02T07:28:17.416Z,98598.59
2023-04-02T07:30:45.463Z,98602.09
2023-04-02T07:33:14.057Z,98602.66
2023-04-02T07:35:41.260Z,98610.75
2023-04-02T07:38:08.321Z,98611.81
2023-04-02T07:40:35.715Z,98614.53
2023-04-02T07:43:04.076Z,98617.22
2023-04-02T07:45:31.492Z,98624.25
2023-04-02T07:47:58.746Z,98627.78
2023-04-02T07:50:25.650Z,98628.59
2023-04-02T07:52:52.450Z,98631.28
2023-04-02T07:55:19.265Z,98629.63
2023-04-02T07:57:49.444Z,98625.91
2023-04-02T08:00:18.669Z,98638.88
2023-04-02T08:02:45.873Z,98646.72
2023-04-02T08:05:13.266Z,98645.69
2023-04-02T08:07:40.365Z,98656.22
2023-04-02T08:10:09.162Z,98656.34
2023-04-02T08:12:36.532Z,98661.50
2023-04-02T08:15:05.767Z,98657.72
2023-04-02T08:17:34.016Z,98668.28
2023-04-02T08:20:01.999Z,98665.34
2023-04-02T08:22:29.411Z,98670.47
2023-04-02T08:24:56.725Z,98667.53
2023-04-02T08:27:23.649Z,98667.28
2023-04-02T08:29:50.950Z,98678.94
2023-04-02T08:32:18.225Z,98683.28
2023-04-02T08:34:46.582Z,98693.22
2023-04-02T08:37:13.782Z,98696.53
2023-04-02T08:39:41.346Z,98699.78
2023-04-02T08:42:24.001Z,98702.75
2023-04-02T08:45:22.967Z,98699.47
2023-04-02T08:47:52.073Z,98706.47
2023-04-02T08:50:29.264Z,98705.44
2023-04-02T08:52:56.991Z,98717.13
2023-04-02T08:55:32.935Z,98716.16
2023-04-02T08:58:08.631Z,98723.19
2023-04-02T09:00:38.192Z,98717.56
2023-04-02T09:03:10.927Z,98726.97
2023-04-02T09:05:42.291Z,98730.81
2023-04-02T09:08:16.435Z,98734.06
2023-04-02T09:10:51.618Z,98735.97
2023-04-02T09:13:23.877Z,98740.94
2023-04-02T09:15:56.573Z,98745.69
2023-04-02T09:18:23.535Z,98746.78
2023-04-02T09:20:51.766Z,98749.56
2023-04-02T09:23:23.064Z,98743.91
2023-04-02T09:26:03.546Z,98747.69
2023-04-02T09:28:31.385Z,98752.56
2023-04-02T09:31:06.982Z,98756.34
2023-04-02T09:33:45.272Z,98759.63
2023-04-02T09:36:35.971Z,98763.38
2023-04-02T09:39:07.185Z,98767.38
2023-04-02T09:41:37.096Z,98775.25
2023-04-02T09:44:20.239Z,98774.16
2023-04-02T09:46:53.059Z,98776.88
2023-04-02T09:49:25.207Z,98789.31
2023-04-02T09:52:19.819Z,98801.16
2023-04-02T09:54:47.748Z,98799.53
2023-04-02T09:57:23.712Z,98802.22
2023-04-02T10:00:25.353Z,98803.84
2023-04-02T10:03:04.791Z,98811.41
2023-04-02T10:05:40.678Z,98814.09
2023-04-02T10:08:20.056Z,98814.09
2023-04-02T10:10:50.561Z,98815.72
2023-04-02T10:13:23.015Z,98818.41
2023-04-02T10:15:56.273Z,98825.97
2023-04-02T10:18:33.462Z,98825.97
2023-04-02T10:21:03.494Z,98825.59
2023-04-02T10:23:32.296Z,98838.28
2023-04-02T10:26:12.150Z,98836.63
2023-04-02T10:29:08.056Z,98841.00
2023-04-02T10:31:47.713Z,98845.78
2023-04-02T10:34:23.529Z,98847.41
2023-04-02T10:36:54.726Z,98848.97
2023-04-02T10:39:29.647Z,98857.31
2023-04-02T10:42:06.527Z,98855.66
2023-04-02T10:44:43.499Z,98871.03
2023-04-02T10:47:33.987Z,98865.88
2023-04-02T10:50:18.533Z,98873.63
2023-04-02T10:52:56.457Z,98874.91
2023-04-02T10:55:28.998Z,98880.31
2023-04-02T10:57:59.706Z,98885.94
2023-04-02T11:00:29.175Z,98880.81
2023-04-02T11:03:02.338Z,98878.13
2023-04-02T11:05:40.313Z,98878.34
2023-04-02T11:08:16.984Z,98890.16
2023-04-02T11:10:48.789Z,98896.59
2023-04-02T11:13:22.923Z,98887.94
2023-04-02T11:15:50.734Z,98894.38
2023-04-02T11:18:24.695Z,98896.03
2023-04-02T11:21:00.532Z,98893.34
2023-04-02T11:23:30.624Z,98896.25
2023-04-02T11:26:35.271Z,98904.00
2023-04-02T11:29:08.164Z,98909.28
2023-04-02T11:31:35.195Z,98913.03
2023-04-02T11:34:02.025Z,98917.84
2023-04-02T11:37:01.715Z,98912.44
2023-04-02T11:39:54.028Z,98926.41
2023-04-02T11:42:30.419Z,98923.13
2023-04-02T11:45:01.616Z,98933.91
2023-04-02T11:47:30.433Z,98933.91
2023-04-02T11:50:05.952Z,98931.22
2023-04-02T11:52:38.017Z,98933.91
2023-04-02T11:55:24.178Z,98939.31
2023-04-02T11:58:25.396Z,98946.00
2023-04-02T12:01:20.960Z,98940.59
2023-04-02T12:04:12.132Z,98947.84
2023-04-02T12:06:54.958Z,98945.66
2023-04-02T12:09:23.803Z,98954.78
2023-04-02T12:11:52.732Z,98953.97
2023-04-02T12:14:41.563Z,98950.44
2023-04-02T12:17:18.443Z,98963.69
2023-04-02T12:19:51.121Z,98964.53
2023-04-02T12:22:23.797Z,98964.97
2023-04-02T12:24:53.636Z,98969.31
2023-04-02T12:27:27.622Z,98970.59
2023-04-02T12:29:57.229Z,98967.69
2023-04-02T12:32:29.561Z,98968.50
2023-04-02T12:34:58.145Z,98983.28
2023-04-02T12:37:27.024Z,98976.84
2023-04-02T12:39:56.496Z,98981.16
2023-04-02T12:42:31.758Z,98979.53
2023-04-02T12:45:00.675Z,98990.53
2023-04-02T12:47:28.478Z,98983.75
2023-04-02T12:49:57.489Z,98992.41
2023-04-02T12:52:28.792Z,98995.09
2023-04-02T12:54:57.372Z,98999.69
2023-04-02T12:57:39.577Z,98999.31
2023-04-02T13:00:31.748Z,98997.69
2023-04-02T13:03:17.006Z,98994.97
2023-04-02T13:05:47.164Z,98996.03
2023-04-02T13:08:20.350Z,99004.13
2023-04-02T13:10:53.640Z,99001.44
2023-04-02T13:13:24.958Z,99005.19
2023-04-02T13:16:02.614Z,99010.09
2023-04-02T13:18:31.928Z,99007.91
2023-04-02T13:20:59.833Z,99008.13
2023-04-02T13:23:37.494Z,99016.78
2023-04-02T13:26:17.478Z,99008.91
2023-04-02T13:28:56.335Z,99015.97
2023-04-02T13:31:24.916Z,99023.47
2023-04-02T13:33:51.792Z,99024.31
2023-04-02T13:36:18.634Z,99018.69
2023-04-02T13:38:45.482Z,99026.75
2023-04-02T13:41:20.902Z,99029.47
2023-04-02T13:43:47.901Z,99033.78
2023-04-02T13:46:21.247Z,99032.97
2023-04-02T13:48:50.377Z,99039.19
2023-04-02T13:51:19.024Z,99034.59
2023-04-02T13:53:47.589Z,99039.19
2023-04-02T13:56:14.480Z,99043.53
2023-04-02T13:58:41.354Z,99047.28
2023-04-02T14:01:09.377Z,99048.34
2023-04-02T14:03:36.659Z,99044.59
2023-04-02T14:06:15.283Z,99050.44
2023-04-02T14:08:57.222Z,99049.59
2023-04-02T14:11:35.974Z,99056.88
2023-04-02T14:14:20.541Z,99058.50
2023-04-02T14:17:01.009Z,99063.69
2023-04-02T14:19:43.644Z,99061.22
2023-04-02T14:22:21.244Z,99070.34
2023-04-02T14:24:55.962Z,99066.59
2023-04-02T14:27:33.422Z,99065.53
2023-04-02T14:30:08.275Z,99072.00
2023-04-02T14:32:44.634Z,99071.16
2023-04-02T14:35:21.092Z,99066.59
2023-04-02T14:37:56.489Z,99073.06
2023-04-02T14:40:29.581Z,99079.25
2023-04-02T14:43:00.686Z,99076.81
2023-04-02T14:45:42.250Z,99080.09
2023-04-02T14:48:15.341Z,99083.38
2023-04-02T14:50:42.806Z,99083.84
2023-04-02T14:53:17.571Z,99081.16
2023-04-02T14:55:47.286Z,99091.94
2023-04-02T14:58:19.752Z,99089.22
2023-04-02T15:00:56.193Z,99095.69
2023-04-02T15:03:25.928Z,99089.47
2023-04-02T15:05:56.751Z,99091.94
2023-04-02T15:08:28.942Z,99094.63
2023-04-02T15:11:04.993Z,99101.88
2023-04-02T15:13:38.231Z,99097.31
2023-04-02T15:16:11.477Z,99102.50
2023-04-02T15:18:38.581Z,99106.47
2023-04-02T15:21:29.401Z,99106.47
2023-04-02T15:24:04.187Z,99109.75
2023-04-02T15:26:39.812Z,99106.81
2023-04-02T15:29:28.381Z,99102.25
2023-04-02T15:32:07.512Z,99114.06
2023-04-02T15:34:40.070Z,99118.44
2023-04-02T15:37:17.477Z,99117.59
2023-04-02T15:40:07.965Z,99118.66
2023-04-02T15:42:39.280Z,99118.66
2023-04-02T15:45:22.799Z,99120.06
2023-04-02T15:48:11.015Z,99133.44
2023-04-02T15:50:51.487Z,99123.66
2023-04-02T15:53:30.722Z,99130.25
2023-04-02T15:56:09.373Z,99131.91
2023-04-02T15:58:50.790Z,99136.25
2023-04-02T16:01:22.025Z,99139.31
2023-04-02T16:04:21.837Z,99139.53
2023-04-02T16:07:12.415Z,99134.13
2023-04-02T16:09:49.539Z,99139.53
2023-04-02T16:12:19.910Z,99139.53
2023-04-02T16:14:48.458Z,99145.75
2023-04-02T16:17:24.953Z,99145.53
2023-04-02T16:19:56.927Z,99150.69
2023-04-02T16:22:28.357Z,99161.50
2023-04-02T16:24:58.049Z,99172.06
2023-04-02T16:27:31.751Z,99178.69
2023-04-02T16:30:09.332Z,99180.38
2023-04-02T16:32:56.678Z,99189.25
2023-04-02T16:35:42.771Z,99191.94
2023-04-02T16:38:21.378Z,99194.66
2023-04-02T16:41:07.498Z,99201.09
2023-04-02T16:43:49.562Z,99202.16
2023-04-02T16:46:38.050Z,99210.47
2023-04-02T16:49:17.369Z,99211.31
2023-04-02T16:51:52.596Z,99214.44
2023-04-02T16:54:26.192Z,99227.94
2023-04-02T16:57:07.825Z,99229.94
2023-04-02T16:59:43.549Z,99233.25
2023-04-02T17:02:24.325Z,99241.09
2023-04-02T17:05:04.938Z,99234.88
2023-04-02T17:07:35.721Z,99239.47
2023-04-02T17:10:30.158Z,99247.56
2023-04-02T17:13:03.229Z,99257.72
2023-04-02T17:15:36.965Z,99257.94
2023-04-02T17:18:11.022Z,99260.66
2023-04-02T17:20:38.278Z,99270.63
2023-04-02T17:23:05.879Z,99276.81
2023-04-02T17:25:37.838Z,99286.81
2023-04-02T17:28:12.598Z,99298.41
2023-04-02T17:30:44.795Z,99299.25
2023-04-02T17:33:12.523Z,99306.28
2023-04-02T17:35:53.260Z,99315.19
2023-04-02T17:38:28.484Z,99313.31
2023-04-02T17:41:08.051Z,99327.84
2023-04-02T17:43:46.115Z,99335.09
2023-04-02T17:46:24.423Z,99340.50
2023-04-02T17:49:00.774Z,99344.03
2023-04-02T17:51:35.668Z,99351.06
2023-04-02T17:54:17.855Z,99355.88
2023-04-02T17:57:00.380Z,99362.31
2023-04-02T17:59:44.078Z,99361.84
2023-04-02T18:02:35.493Z,99373.25
2023-04-02T18:05:14.543Z,99374.88
2023-04-02T18:07:50.022Z,99380.88
2023-04-02T18:10:23.523Z,99381.13
2023-04-02T18:13:06.250Z,99384.41
2023-04-02T18:15:46.173Z,99386.50
2023-04-02T18:18:30.759Z,99391.91
2023-04-02T18:21:08.068Z,99402.91
2023-04-02T18:23:48.160Z,99404.56
2023-04-02T18:26:22.454Z,99407.25
2023-04-02T18:29:01.507Z,99408.91
2023-04-02T18:31:38.026Z,99422.38
2023-04-02T18:34:23.446Z,99422.59
2023-04-02T18:37:05.001Z,99429.88
2023-04-02T18:39:45.716Z,99439.84
2023-04-02T18:42:36.123Z,99438.19
2023-04-02T18:45:11.892Z,99449.81
2023-04-02T18:47:47.020Z,99448.97
2023-04-02T18:50:18.584Z,99459.75
2023-04-02T18:52:45.944Z,99454.38
2023-04-02T18:55:19.998Z,99463.13
2023-04-02T18:57:51.469Z,99468.91
2023-04-02T19:00:29.058Z,99473.47
2023-04-02T19:03:01.816Z,99471.00
2023-04-02T19:05:40.537Z,99482.84
2023-04-02T19:08:16.504Z,99485.53
2023-04-02T19:10:45.059Z,99487.59
2023-04-02T19:13:16.311Z,99489.28
2023-04-02T19:16:03.765Z,99499.00
2023-04-02T19:18:39.462Z,99505.88
2023-04-02T19:21:21.499Z,99516.88
2023-04-02T19:24:02.977Z,99520.22
2023-04-02T19:26:35.018Z,99522.91
2023-04-02T19:29:16.630Z,99522.50
2023-04-02T19:31:53.629Z,99532.47
2023-04-02T19:34:27.691Z,99533.97
2023-04-02T19:37:02.075Z,99530.84
2023-04-02T19:39:58.884Z,99541.31
2023-04-02T19:42:43.595Z,99552.72
2023-04-02T19:45:27.279Z,99550.44
2023-04-02T19:47:55.324Z,99554.56
2023-04-02T19:50:22.573Z,99563.03
2023-04-02T19:52:51.284Z,99564.91
2023-04-02T19:55:18.138Z,99568.44
2023-04-02T19:57:45.195Z,99579.22
2023-04-02T20:00:14.283Z,99579.63
2023-04-02T20:02:41.402Z,99574.47
2023-04-02T20:05:08.917Z,99580.69
2023-04-02T20:07:36.097Z,99586.28
2023-04-02T20:10:04.868Z,99589.19
2023-04-02T20:12:31.746Z,99587.34
2023-04-02T20:14:58.617Z,99593.16
2023-04-02T20:17:25.560Z,99597.94
2023-04-02T20:19:52.431Z,99598.34
2023-04-02T20:22:19.409Z,99606.47
2023-04-02T20:24:46.219Z,99606.47
2023-04-02T20:27:14.435Z,99609.78
2023-04-02T20:29:42.468Z,99612.72
2023-04-02T20:32:09.844Z,99615.03
2023-04-02T20:34:36.815Z,99625.41
2023-04-02T20:37:03.744Z,99621.47
2023-04-02T20:39:30.593Z,99632.69
2023-04-02T20:42:01.228Z,99633.50
2023-04-02T20:44:29.553Z,99637.63
2023-04-02T20:46:56.453Z,99634.94
2023-04-02T20:49:23.370Z,99639.31
2023-04-02T20:51:50.167Z,99646.56
2023-04-02T20:54:16.978Z,99654.25
2023-04-02T20:56:44.682Z,99654.84
2023-04-02T20:59:11.720Z,99665.63
2023-04-02T21:01:39.931Z,99656.75
2023-04-02T21:04:06.905Z,99673.28
2023-04-02T21:06:35.324Z,99676.19
2023-04-02T21:09:04.431Z,99684.47
2023-04-02T21:11:32.608Z,99674.75
2023-04-02T21:13:59.451Z,99684.47
2023-04-02T21:16:28.864Z,99686.59
2023-04-02T21:18:59.652Z,99683.25
2023-04-02T21:21:26.975Z,99686.16
2023-04-02T21:23:54.823Z,99680.78
2023-04-02T21:26:21.805Z,99685.34
2023-04-02T21:28:48.680Z,99685.94
2023-04-02T21:31:17.701Z,99689.06
2023-04-02T21:33:47.046Z,99691.75
2023-04-02T21:36:17.177Z,99694.44
2023-04-02T21:38:44.922Z,99690.31
2023-04-02T21:41:13.631Z,99692.19
2023-04-02T21:43:40.520Z,99693.22
2023-04-02T21:46:07.384Z,99693.44
2023-04-02T21:48:34.241Z,99693.66
2023-04-02T21:51:08.895Z,99699.63
2023-04-02T21:53:38.249Z,99698.59
2023-04-02T21:56:07.238Z,99698.41
2023-04-02T21:58:34.810Z,99702.16
2023-04-02T22:01:02.775Z,99705.88
2023-04-02T22:03:32.092Z,99702.34
2023-04-02T22:06:06.675Z,99698.00
2023-04-02T22:08:33.971Z,99708.56
2023-04-02T22:11:10.845Z,99708.56
2023-04-02T22:13:38.981Z,99713.53
2023-04-02T22:16:10.421Z,99716.44
2023-04-02T22:18:37.993Z,99715.81
2023-04-02T22:21:05.762Z,99713.09
2023-04-02T22:23:32.932Z,99718.28
2023-04-02T22:26:00.866Z,99724.72
2023-04-02T22:28:29.533Z,99724.91
2023-04-02T22:31:03.168Z,99726.13
2023-04-02T22:33:32.357Z,99736.28
2023-04-02T22:35:59.774Z,99719.69
2023-04-02T22:38:26.968Z,99724.84
2023-04-02T22:41:03.327Z,99729.63
2023-04-02T22:43:31.800Z,99732.34
2023-04-02T22:45:58.728Z,99740.44
2023-04-02T22:48:25.600Z,99735.25
2023-04-02T22:50:52.498Z,99739.59
2023-04-02T22:53:19.820Z,99736.91
2023-04-02T22:55:46.779Z,99739.59
2023-04-02T22:58:13.593Z,99743.34
2023-04-02T23:00:42.054Z,99739.00
2023-04-02T23:03:09.068Z,99745.41
2023-04-02T23:05:35.942Z,99745.00
2023-04-02T23:08:03.101Z,99738.78
2023-04-02T23:10:33.987Z,99745.63
2023-04-02T23:13:01.058Z,99740.47
2023-04-02T23:15:27.837Z,99748.75
2023-04-02T23:17:56.072Z,99755.78
2023-04-02T23:20:22.956Z,99753.72
2023-04-02T23:22:49.815Z,99749.78
2023-04-02T23:25:17.017Z,99748.53
2023-04-02T23:27:43.838Z,99749.13
2023-04-02T23:30:11.042Z,99746.25
2023-04-02T23:32:37.924Z,99745.88
2023-04-02T23:35:06.649Z,99737.56
2023-04-02T23:37:33.427Z,99747.53
2023-04-02T23:40:00.380Z,99746.88
2023-04-02T23:42:28.025Z,99751.03
2023-04-02T23:44:55.504Z,99753.72
2023-04-02T23:47:22.300Z,99749.16
2023-04-02T23:49:49.141Z,99755.41
2023-04-02T23:52:17.326Z,99758.91
2023-04-02T23:54:44.181Z,99757.88
2023-04-02T23:57:11.371Z,99758.28
2023-04-02T23:59:38.201Z,99754.97
